sensor_id;sensor_type;location;lat;lon;timestamp;pressure;altitude;pressure_sealevel;temperature;humidity
28935;BME280;16044;52.726;-2.108;2023-07-20T00:01:41;100776.31;;;12.97;85.29
28935;BME280;16044;52.726;-2.108;2023-07-20T00:04:13;100773.28;;;12.92;85.93
28935;BME280;16044;52.726;-2.108;2023-07-20T00:06:44;100761.94;;;12.88;86.19
28935;BME280;16044;52.726;-2.108;2023-07-20T00:09:17;100769.44;;;12.86;86.42
28935;BME280;16044;52.726;-2.108;2023-07-20T00:11:49;100769.13;;;12.81;86.95
28935;BME280;16044;52.726;-2.108;2023-07-20T00:14:20;100775.44;;;12.82;86.49
28935;BME280;16044;52.726;-2.108;2023-07-20T00:16:51;100766.81;;;12.78;86.59
28935;BME280;16044;52.726;-2.108;2023-07-20T00:19:26;100766.16;;;12.76;86.51
28935;BME280;16044;52.726;-2.108;2023-07-20T00:21:59;100764.63;;;12.74;86.79
28935;BME280;16044;52.726;-2.108;2023-07-20T00:24:34;100768.91;;;12.68;87.25
28935;BME280;16044;52.726;-2.108;2023-07-20T00:27:05;100774.75;;;12.65;87.49
28935;BME280;16044;52.726;-2.108;2023-07-20T00:29:36;100777.66;;;12.63;86.71
28935;BME280;16044;52.726;-2.108;2023-07-20T00:32:07;100771.91;;;12.58;86.97
28935;BME280;16044;52.726;-2.108;2023-07-20T00:34:37;100772.28;;;12.55;87.21
28935;BME280;16044;52.726;-2.108;2023-07-20T00:37:07;100775.53;;;12.51;87.42
28935;BME280;16044;52.726;-2.108;2023-07-20T00:39:41;100777.75;;;12.47;88.06
28935;BME280;16044;52.726;-2.108;2023-07-20T00:42:11;100767.28;;;12.44;87.91
28935;BME280;16044;52.726;-2.108;2023-07-20T00:44:41;100763.03;;;12.41;88.43
28935;BME280;16044;52.726;-2.108;2023-07-20T00:47:11;100763.19;;;12.40;88.36
28935;BME280;16044;52.726;-2.108;2023-07-20T00:49:42;100765.25;;;12.38;88.43
28935;BME280;16044;52.726;-2.108;2023-07-20T00:52:14;100756.44;;;12.36;88.12
28935;BME280;16044;52.726;-2.108;2023-07-20T00:54:47;100757.84;;;12.32;88.65
28935;BME280;16044;52.726;-2.108;2023-07-20T00:57:19;100757.00;;;12.31;88.70
28935;BME280;16044;52.726;-2.108;2023-07-20T00:59:50;100757.53;;;12.26;88.84
28935;BME280;16044;52.726;-2.108;2023-07-20T01:02:20;100760.47;;;12.25;88.83
28935;BME280;16044;52.726;-2.108;2023-07-20T01:04:51;100752.16;;;12.18;89.54
28935;BME280;16044;52.726;-2.108;2023-07-20T01:07:26;100757.28;;;12.13;89.83
28935;BME280;16044;52.726;-2.108;2023-07-20T01:10:09;100762.44;;;12.08;89.77
28935;BME280;16044;52.726;-2.108;2023-07-20T01:12:43;100754.97;;;12.02;90.96
28935;BME280;16044;52.726;-2.108;2023-07-20T01:15:16;100751.59;;;12.00;91.07
28935;BME280;16044;52.726;-2.108;2023-07-20T01:17:47;100760.97;;;11.97;91.31
28935;BME280;16044;52.726;-2.108;2023-07-20T01:20:19;100754.22;;;11.93;91.40
28935;BME280;16044;52.726;-2.108;2023-07-20T01:23:11;100752.69;;;11.90;91.54
28935;BME280;16044;52.726;-2.108;2023-07-20T01:26:11;100745.41;;;11.91;91.21
28935;BME280;16044;52.726;-2.108;2023-07-20T01:29:22;100742.69;;;11.91;91.26
28935;BME280;16044;52.726;-2.108;2023-07-20T01:32:04;100735.84;;;11.95;91.33
28935;BME280;16044;52.726;-2.108;2023-07-20T01:34:38;100742.78;;;11.98;91.75
28935;BME280;16044;52.726;-2.108;2023-07-20T01:37:10;100733.63;;;11.99;92.23
28935;BME280;16044;52.726;-2.108;2023-07-20T01:39:41;100736.84;;;12.02;91.52
28935;BME280;16044;52.726;-2.108;2023-07-20T01:42:12;100741.72;;;12.07;90.92
28935;BME280;16044;52.726;-2.108;2023-07-20T01:44:42;100748.84;;;12.08;91.64
28935;BME280;16044;52.726;-2.108;2023-07-20T01:47:15;100756.13;;;12.07;91.82
28935;BME280;16044;52.726;-2.108;2023-07-20T01:49:46;100754.75;;;12.12;92.20
28935;BME280;16044;52.726;-2.108;2023-07-20T01:52:16;100751.84;;;12.13;92.10
28935;BME280;16044;52.726;-2.108;2023-07-20T01:54:46;100745.22;;;12.16;91.90
28935;BME280;16044;52.726;-2.108;2023-07-20T01:57:17;100741.47;;;12.17;92.07
28935;BME280;16044;52.726;-2.108;2023-07-20T01:59:47;100738.22;;;12.21;91.61
28935;BME280;16044;52.726;-2.108;2023-07-20T02:02:22;100743.66;;;12.21;91.60
28935;BME280;16044;52.726;-2.108;2023-07-20T02:04:56;100737.84;;;12.24;91.33
28935;BME280;16044;52.726;-2.108;2023-07-20T02:07:26;100741.44;;;12.25;91.53
28935;BME280;16044;52.726;-2.108;2023-07-20T02:09:56;100739.56;;;12.25;91.13
28935;BME280;16044;52.726;-2.108;2023-07-20T02:12:27;100734.47;;;12.22;91.64
28935;BME280;16044;52.726;-2.108;2023-07-20T02:14:57;100730.06;;;12.21;91.77
28935;BME280;16044;52.726;-2.108;2023-07-20T02:17:30;100736.16;;;12.23;91.38
28935;BME280;16044;52.726;-2.108;2023-07-20T02:20:00;100744.16;;;12.25;91.26
28935;BME280;16044;52.726;-2.108;2023-07-20T02:22:31;100729.50;;;12.26;90.94
28935;BME280;16044;52.726;-2.108;2023-07-20T02:25:01;100744.16;;;12.25;91.07
28935;BME280;16044;52.726;-2.108;2023-07-20T02:27:31;100738.22;;;12.21;91.77
28935;BME280;16044;52.726;-2.108;2023-07-20T02:30:02;100739.91;;;12.22;91.59
28935;BME280;16044;52.726;-2.108;2023-07-20T02:32:36;100741.97;;;12.20;91.68
28935;BME280;16044;52.726;-2.108;2023-07-20T02:35:07;100732.78;;;12.21;91.21
28935;BME280;16044;52.726;-2.108;2023-07-20T02:37:37;100728.38;;;12.20;91.25
28935;BME280;16044;52.726;-2.108;2023-07-20T02:40:09;100727.03;;;12.16;91.57
28935;BME280;16044;52.726;-2.108;2023-07-20T02:42:40;100729.09;;;12.14;91.25
28935;BME280;16044;52.726;-2.108;2023-07-20T02:45:10;100725.06;;;12.10;91.08
28935;BME280;16044;52.726;-2.108;2023-07-20T02:47:43;100728.13;;;12.07;91.38
28935;BME280;16044;52.726;-2.108;2023-07-20T02:50:13;100732.41;;;12.01;91.82
28935;BME280;16044;52.726;-2.108;2023-07-20T02:52:43;100719.19;;;11.98;91.60
28935;BME280;16044;52.726;-2.108;2023-07-20T02:55:14;100726.50;;;11.98;91.59
28935;BME280;16044;52.726;-2.108;2023-07-20T02:57:44;100721.44;;;11.95;91.28
28935;BME280;16044;52.726;-2.108;2023-07-20T03:00:15;100725.81;;;11.96;91.22
28935;BME280;16044;52.726;-2.108;2023-07-20T03:02:49;100721.13;;;11.89;91.71
28935;BME280;16044;52.726;-2.108;2023-07-20T03:05:23;100719.56;;;11.87;92.36
28935;BME280;16044;52.726;-2.108;2023-07-20T03:07:55;100709.91;;;11.84;92.57
28935;BME280;16044;52.726;-2.108;2023-07-20T03:10:26;100709.91;;;11.84;92.24
28935;BME280;16044;52.726;-2.108;2023-07-20T03:12:56;100716.19;;;11.85;91.92
28935;BME280;16044;52.726;-2.108;2023-07-20T03:15:26;100707.53;;;11.81;92.42
28935;BME280;16044;52.726;-2.108;2023-07-20T03:18:00;100713.66;;;11.83;92.24
28935;BME280;16044;52.726;-2.108;2023-07-20T03:20:31;100713.66;;;11.83;92.25
28935;BME280;16044;52.726;-2.108;2023-07-20T03:23:01;100715.34;;;11.84;92.33
28935;BME280;16044;52.726;-2.108;2023-07-20T03:25:32;100708.59;;;11.80;93.00
28935;BME280;16044;52.726;-2.108;2023-07-20T03:28:04;100719.09;;;11.83;92.31
28935;BME280;16044;52.726;-2.108;2023-07-20T03:30:34;100715.34;;;11.84;92.49
28935;BME280;16044;52.726;-2.108;2023-07-20T03:33:07;100720.09;;;11.82;92.98
28935;BME280;16044;52.726;-2.108;2023-07-20T03:35:38;100717.41;;;11.82;93.06
28935;BME280;16044;52.726;-2.108;2023-07-20T03:38:08;100710.75;;;11.85;92.69
28935;BME280;16044;52.726;-2.108;2023-07-20T03:40:38;100712.63;;;11.84;93.14
28935;BME280;16044;52.726;-2.108;2023-07-20T03:43:09;100712.44;;;11.86;93.25
28935;BME280;16044;52.726;-2.108;2023-07-20T03:45:39;100717.88;;;11.86;93.49
28935;BME280;16044;52.726;-2.108;2023-07-20T03:48:12;100717.53;;;11.89;93.35
28935;BME280;16044;52.726;-2.108;2023-07-20T03:50:44;100714.66;;;11.90;93.42
28935;BME280;16044;52.726;-2.108;2023-07-20T03:53:15;100709.88;;;11.93;93.49
28935;BME280;16044;52.726;-2.108;2023-07-20T03:55:46;100712.81;;;11.91;94.13
28935;BME280;16044;52.726;-2.108;2023-07-20T03:58:18;100702.78;;;11.92;93.91
28935;BME280;16044;52.726;-2.108;2023-07-20T04:00:50;100707.16;;;11.93;94.08
28935;BME280;16044;52.726;-2.108;2023-07-20T04:03:23;100713.28;;;11.95;93.59
28935;BME280;16044;52.726;-2.108;2023-07-20T04:05:54;100712.06;;;11.97;93.68
28935;BME280;16044;52.726;-2.108;2023-07-20T04:08:25;100719.00;;;12.00;93.55
28935;BME280;16044;52.726;-2.108;2023-07-20T04:10:55;100713.56;;;12.00;94.29
28935;BME280;16044;52.726;-2.108;2023-07-20T04:13:26;100704.03;;;12.04;93.74
28935;BME280;16044;52.726;-2.108;2023-07-20T04:16:00;100709.47;;;12.04;93.82
28935;BME280;16044;52.726;-2.108;2023-07-20T04:18:33;100700.28;;;12.05;93.96
28935;BME280;16044;52.726;-2.108;2023-07-20T04:21:03;100703.31;;;12.10;93.55
28935;BME280;16044;52.726;-2.108;2023-07-20T04:23:33;100708.38;;;12.13;93.61
28935;BME280;16044;52.726;-2.108;2023-07-20T04:26:04;100708.38;;;12.13;93.85
28935;BME280;16044;52.726;-2.108;2023-07-20T04:28:35;100701.75;;;12.16;93.71
28935;BME280;16044;52.726;-2.108;2023-07-20T04:31:10;100709.25;;;12.14;93.91
28935;BME280;16044;52.726;-2.108;2023-07-20T04:33:43;100709.25;;;12.14;94.19
28935;BME280;16044;52.726;-2.108;2023-07-20T04:36:14;100708.88;;;12.17;94.34
28935;BME280;16044;52.726;-2.108;2023-07-20T04:38:47;100699.88;;;12.16;94.54
28935;BME280;16044;52.726;-2.108;2023-07-20T04:41:17;100701.19;;;12.20;94.34
28935;BME280;16044;52.726;-2.108;2023-07-20T04:43:47;100696.41;;;12.22;94.07
28935;BME280;16044;52.726;-2.108;2023-07-20T04:46:18;100694.34;;;12.24;94.06
28935;BME280;16044;52.726;-2.108;2023-07-20T04:48:51;100698.78;;;12.25;93.99
28935;BME280;16044;52.726;-2.108;2023-07-20T04:51:22;100699.94;;;12.31;93.96
28935;BME280;16044;52.726;-2.108;2023-07-20T04:53:52;100698.03;;;12.32;94.49
28935;BME280;16044;52.726;-2.108;2023-07-20T04:56:22;100701.41;;;12.34;94.23
28935;BME280;16044;52.726;-2.108;2023-07-20T04:58:52;100705.47;;;12.38;94.28
28935;BME280;16044;52.726;-2.108;2023-07-20T05:01:24;100700.69;;;12.40;93.95
28935;BME280;16044;52.726;-2.108;2023-07-20T05:03:57;100706.41;;;12.45;93.84
28935;BME280;16044;52.726;-2.108;2023-07-20T05:06:27;100696.38;;;12.45;94.00
28935;BME280;16044;52.726;-2.108;2023-07-20T05:08:57;100694.31;;;12.47;94.16
28935;BME280;16044;52.726;-2.108;2023-07-20T05:11:28;100704.84;;;12.51;94.27
28935;BME280;16044;52.726;-2.108;2023-07-20T05:13:59;100714.13;;;12.56;93.66
28935;BME280;16044;52.726;-2.108;2023-07-20T05:16:29;100699.53;;;12.57;94.02
28935;BME280;16044;52.726;-2.108;2023-07-20T05:19:02;100703.38;;;12.63;93.50
28935;BME280;16044;52.726;-2.108;2023-07-20T05:21:32;100711.31;;;12.64;93.75
28935;BME280;16044;52.726;-2.108;2023-07-20T05:24:03;100705.53;;;12.67;93.83
28935;BME280;16044;52.726;-2.108;2023-07-20T05:26:34;100712.47;;;12.70;93.99
28935;BME280;16044;52.726;-2.108;2023-07-20T05:29:05;100712.75;;;12.75;93.85
28935;BME280;16044;52.726;-2.108;2023-07-20T05:31:35;100707.78;;;12.79;93.75
28935;BME280;16044;52.726;-2.108;2023-07-20T05:34:08;100706.38;;;12.83;93.36
28935;BME280;16044;52.726;-2.108;2023-07-20T05:36:38;100707.69;;;12.87;93.78
28935;BME280;16044;52.726;-2.108;2023-07-20T05:39:09;100704.25;;;12.93;93.42
28935;BME280;16044;52.726;-2.108;2023-07-20T05:41:39;100713.91;;;12.96;93.48
28935;BME280;16044;52.726;-2.108;2023-07-20T05:44:09;100703.50;;;12.99;93.53
28935;BME280;16044;52.726;-2.108;2023-07-20T05:46:40;100704.25;;;13.08;93.29
28935;BME280;16044;52.726;-2.108;2023-07-20T05:49:26;100709.50;;;13.10;93.28
28935;BME280;16044;52.726;-2.108;2023-07-20T05:51:57;100707.91;;;13.15;93.29
28935;BME280;16044;52.726;-2.108;2023-07-20T05:54:27;100710.91;;;13.20;93.64
28935;BME280;16044;52.726;-2.108;2023-07-20T05:56:58;100709.31;;;13.26;93.42
28935;BME280;16044;52.726;-2.108;2023-07-20T05:59:28;100707.38;;;13.35;93.18
28935;BME280;16044;52.726;-2.108;2023-07-20T06:01:59;100706.97;;;13.38;93.07
28935;BME280;16044;52.726;-2.108;2023-07-20T06:04:32;100712.06;;;13.41;93.19
28935;BME280;16044;52.726;-2.108;2023-07-20T06:07:02;100712.97;;;13.48;93.01
28935;BME280;16044;52.726;-2.108;2023-07-20T06:09:34;100716.19;;;13.52;93.24
28935;BME280;16044;52.726;-2.108;2023-07-20T06:12:06;100713.50;;;13.58;92.85
28935;BME280;16044;52.726;-2.108;2023-07-20T06:14:37;100708.53;;;13.62;93.01
28935;BME280;16044;52.726;-2.108;2023-07-20T06:17:08;100710.66;;;13.67;92.91
28935;BME280;16044;52.726;-2.108;2023-07-20T06:19:41;100711.59;;;13.74;92.70
28935;BME280;16044;52.726;-2.108;2023-07-20T06:22:12;100702.88;;;13.78;92.45
28935;BME280;16044;52.726;-2.108;2023-07-20T06:24:42;100708.78;;;13.82;92.84
28935;BME280;16044;52.726;-2.108;2023-07-20T06:27:13;100704.22;;;13.89;92.43
28935;BME280;16044;52.726;-2.108;2023-07-20T06:29:43;100712.03;;;13.92;92.81
28935;BME280;16044;52.726;-2.108;2023-07-20T06:32:13;100700.16;;;14.00;92.46
28935;BME280;16044;52.726;-2.108;2023-07-20T06:34:46;100711.13;;;14.07;92.14
28935;BME280;16044;52.726;-2.108;2023-07-20T06:37:17;100703.19;;;14.12;92.16
28935;BME280;16044;52.726;-2.108;2023-07-20T06:39:47;100704.69;;;14.14;92.39
28935;BME280;16044;52.726;-2.108;2023-07-20T06:42:20;100697.81;;;14.18;92.10
28935;BME280;16044;52.726;-2.108;2023-07-20T06:44:51;100705.00;;;14.26;91.79
28935;BME280;16044;52.726;-2.108;2023-07-20T06:47:21;100704.63;;;14.29;91.95
28935;BME280;16044;52.726;-2.108;2023-07-20T06:49:54;100708.00;;;14.31;91.67
28935;BME280;16044;52.726;-2.108;2023-07-20T06:52:25;100709.94;;;14.37;91.62
28935;BME280;16044;52.726;-2.108;2023-07-20T06:54:55;100719.69;;;14.47;91.36
28935;BME280;16044;52.726;-2.108;2023-07-20T06:57:31;100704.78;;;14.49;91.26
28935;BME280;16044;52.726;-2.108;2023-07-20T07:00:01;100706.06;;;14.53;91.05
28935;BME280;16044;52.726;-2.108;2023-07-20T07:02:33;100709.75;;;14.60;90.96
28935;BME280;16044;52.726;-2.108;2023-07-20T07:05:07;100708.09;;;14.66;90.74
28935;BME280;16044;52.726;-2.108;2023-07-20T07:07:41;100717.75;;;14.69;91.01
28935;BME280;16044;52.726;-2.108;2023-07-20T07:10:11;100720.75;;;14.74;90.88
28935;BME280;16044;52.726;-2.108;2023-07-20T07:12:41;100714.28;;;14.81;90.61
28935;BME280;16044;52.726;-2.108;2023-07-20T07:15:12;100711.00;;;14.86;90.84
28935;BME280;16044;52.726;-2.108;2023-07-20T07:17:43;100712.91;;;14.92;90.55
28935;BME280;16044;52.726;-2.108;2023-07-20T07:20:16;100708.97;;;15.01;90.23
28935;BME280;16044;52.726;-2.108;2023-07-20T07:22:47;100716.38;;;15.08;90.37
28935;BME280;16044;52.726;-2.108;2023-07-20T07:25:20;100705.06;;;15.17;90.10
28935;BME280;16044;52.726;-2.108;2023-07-20T07:27:51;100707.03;;;15.30;89.81
28935;BME280;16044;52.726;-2.108;2023-07-20T07:30:22;100704.56;;;15.42;89.01
28935;BME280;16044;52.726;-2.108;2023-07-20T07:32:53;100705.00;;;15.46;89.44
28935;BME280;16044;52.726;-2.108;2023-07-20T07:35:26;100696.22;;;15.57;89.19
28935;BME280;16044;52.726;-2.108;2023-07-20T07:37:56;100702.59;;;15.71;88.90
28935;BME280;16044;52.726;-2.108;2023-07-20T07:40:47;100698.88;;;15.85;87.26
28935;BME280;16044;52.726;-2.108;2023-07-20T07:43:17;100704.56;;;15.97;86.97
28935;BME280;16044;52.726;-2.108;2023-07-20T07:45:47;100693.44;;;16.05;86.37
28935;BME280;16044;52.726;-2.108;2023-07-20T07:48:18;100706.50;;;16.16;86.05
28935;BME280;16044;52.726;-2.108;2023-07-20T07:50:51;100706.69;;;16.22;82.95
28935;BME280;16044;52.726;-2.108;2023-07-20T07:53:22;100710.28;;;16.29;83.06
28935;BME280;16044;52.726;-2.108;2023-07-20T07:55:53;100710.94;;;16.37;81.18
28935;BME280;16044;52.726;-2.108;2023-07-20T07:58:23;100711.56;;;16.46;81.73
28935;BME280;16044;52.726;-2.108;2023-07-20T08:00:54;100699.34;;;16.55;81.61
28935;BME280;16044;52.726;-2.108;2023-07-20T08:03:24;100701.03;;;16.70;81.51
28935;BME280;16044;52.726;-2.108;2023-07-20T08:05:57;100708.44;;;16.83;80.57
28935;BME280;16044;52.726;-2.108;2023-07-20T08:08:31;100704.81;;;16.95;79.35
28935;BME280;16044;52.726;-2.108;2023-07-20T08:11:04;100703.13;;;17.01;79.62
28935;BME280;16044;52.726;-2.108;2023-07-20T08:13:34;100702.88;;;17.16;77.72
28935;BME280;16044;52.726;-2.108;2023-07-20T08:16:05;100708.13;;;17.24;74.83
28935;BME280;16044;52.726;-2.108;2023-07-20T08:18:35;100706.59;;;17.35;74.14
28935;BME280;16044;52.726;-2.108;2023-07-20T08:21:08;100706.19;;;17.45;75.04
28935;BME280;16044;52.726;-2.108;2023-07-20T08:23:39;100704.22;;;17.52;72.11
28935;BME280;16044;52.726;-2.108;2023-07-20T08:26:10;100705.88;;;17.60;72.77
28935;BME280;16044;52.726;-2.108;2023-07-20T08:28:40;100704.56;;;17.69;71.50
28935;BME280;16044;52.726;-2.108;2023-07-20T08:31:12;100704.97;;;17.72;70.29
28935;BME280;16044;52.726;-2.108;2023-07-20T08:33:42;100701.53;;;17.84;71.66
28935;BME280;16044;52.726;-2.108;2023-07-20T08:36:16;100694.78;;;17.93;71.90
28935;BME280;16044;52.726;-2.108;2023-07-20T08:38:47;100696.78;;;18.11;71.52
28935;BME280;16044;52.726;-2.108;2023-07-20T08:41:18;100697.13;;;18.21;71.01
28935;BME280;16044;52.726;-2.108;2023-07-20T08:43:50;100703.81;;;18.32;70.03
28935;BME280;16044;52.726;-2.108;2023-07-20T08:46:26;100701.16;;;18.44;70.58
28935;BME280;16044;52.726;-2.108;2023-07-20T08:48:57;100703.19;;;18.55;69.15
28935;BME280;16044;52.726;-2.108;2023-07-20T08:51:33;100709.88;;;18.66;67.08
28935;BME280;16044;52.726;-2.108;2023-07-20T08:54:06;100705.81;;;18.68;66.62
28935;BME280;16044;52.726;-2.108;2023-07-20T08:56:38;100708.13;;;18.72;64.35
28935;BME280;16044;52.726;-2.108;2023-07-20T08:59:12;100701.94;;;18.83;62.52
28935;BME280;16044;52.726;-2.108;2023-07-20T09:01:44;100706.72;;;18.87;62.79
28935;BME280;16044;52.726;-2.108;2023-07-20T09:04:14;100709.31;;;18.82;62.93
28935;BME280;16044;52.726;-2.108;2023-07-20T09:06:49;100713.44;;;18.92;62.62
28935;BME280;16044;52.726;-2.108;2023-07-20T09:09:20;100711.66;;;19.04;63.38
28935;BME280;16044;52.726;-2.108;2023-07-20T09:11:50;100713.53;;;19.03;62.35
28935;BME280;16044;52.726;-2.108;2023-07-20T09:14:18;100701.88;;;19.08;62.98
28935;BME280;16044;52.726;-2.108;2023-07-20T09:16:49;100706.44;;;19.14;61.71
28935;BME280;16044;52.726;-2.108;2023-07-20T09:19:22;100703.31;;;19.29;61.35
28935;BME280;16044;52.726;-2.108;2023-07-20T09:21:55;100711.50;;;19.36;60.73
28935;BME280;16044;52.726;-2.108;2023-07-20T09:24:28;100699.81;;;19.40;59.66
28935;BME280;16044;52.726;-2.108;2023-07-20T09:27:01;100703.25;;;19.36;58.84
28935;BME280;16044;52.726;-2.108;2023-07-20T09:29:32;100700.19;;;19.44;57.66
28935;BME280;16044;52.726;-2.108;2023-07-20T09:32:04;100702.63;;;19.52;57.06
28935;BME280;16044;52.726;-2.108;2023-07-20T09:34:50;100696.81;;;19.60;56.14
28935;BME280;16044;52.726;-2.108;2023-07-20T09:37:24;100694.81;;;19.67;55.51
28935;BME280;16044;52.726;-2.108;2023-07-20T09:39:54;100696.13;;;19.83;55.63
28935;BME280;16044;52.726;-2.108;2023-07-20T09:42:27;100690.28;;;19.92;55.56
28935;BME280;16044;52.726;-2.108;2023-07-20T09:45:01;100692.16;;;20.10;55.55
28935;BME280;16044;52.726;-2.108;2023-07-20T09:47:35;100692.41;;;20.20;55.92
28935;BME280;16044;52.726;-2.108;2023-07-20T09:50:07;100693.50;;;20.31;56.45
28935;BME280;16044;52.726;-2.108;2023-07-20T09:52:44;100686.44;;;20.23;55.65
28935;BME280;16044;52.726;-2.108;2023-07-20T09:55:17;100690.53;;;20.32;54.90
28935;BME280;16044;52.726;-2.108;2023-07-20T09:57:48;100681.91;;;20.40;55.56
28935;BME280;16044;52.726;-2.108;2023-07-20T10:00:20;100688.59;;;20.44;55.35
28935;BME280;16044;52.726;-2.108;2023-07-20T10:02:54;100689.72;;;20.55;55.43
28935;BME280;16044;52.726;-2.108;2023-07-20T10:05:28;100683.50;;;20.60;52.89
28935;BME280;16044;52.726;-2.108;2023-07-20T10:08:11;100679.53;;;20.56;50.49
28935;BME280;16044;52.726;-2.108;2023-07-20T10:10:45;100681.09;;;20.52;51.54
28935;BME280;16044;52.726;-2.108;2023-07-20T10:13:18;100679.66;;;20.49;51.22
28935;BME280;16044;52.726;-2.108;2023-07-20T10:15:58;100677.88;;;20.55;51.26
28935;BME280;16044;52.726;-2.108;2023-07-20T10:18:37;100679.28;;;20.45;50.35
28935;BME280;16044;52.726;-2.108;2023-07-20T10:21:12;100675.56;;;20.52;50.64
28935;BME280;16044;52.726;-2.108;2023-07-20T10:23:48;100674.97;;;20.50;50.65
28935;BME280;16044;52.726;-2.108;2023-07-20T10:26:19;100676.69;;;20.62;51.05
28935;BME280;16044;52.726;-2.108;2023-07-20T10:28:50;100668.66;;;20.61;50.56
28935;BME280;16044;52.726;-2.108;2023-07-20T10:31:20;100674.28;;;20.66;51.22
28935;BME280;16044;52.726;-2.108;2023-07-20T10:33:52;100672.63;;;20.65;49.58
28935;BME280;16044;52.726;-2.108;2023-07-20T10:36:25;100668.91;;;20.71;48.60
28935;BME280;16044;52.726;-2.108;2023-07-20T10:39:00;100672.63;;;20.65;47.59
28935;BME280;16044;52.726;-2.108;2023-07-20T10:41:34;100660.88;;;20.81;48.52
28935;BME280;16044;52.726;-2.108;2023-07-20T10:44:07;100662.78;;;20.81;48.34
28935;BME280;16044;52.726;-2.108;2023-07-20T10:46:43;100663.28;;;20.90;48.44
28935;BME280;16044;52.726;-2.108;2023-07-20T10:49:15;100659.66;;;21.01;47.96
28935;BME280;16044;52.726;-2.108;2023-07-20T10:51:57;100662.63;;;21.11;48.60
28935;BME280;16044;52.726;-2.108;2023-07-20T10:54:50;100657.72;;;21.13;46.20
28935;BME280;16044;52.726;-2.108;2023-07-20T10:57:29;100652.47;;;21.12;45.49
28935;BME280;16044;52.726;-2.108;2023-07-20T11:00:08;100655.22;;;21.12;45.54
28935;BME280;16044;52.726;-2.108;2023-07-20T11:02:48;100655.31;;;21.29;45.25
28935;BME280;16044;52.726;-2.108;2023-07-20T11:05:34;100650.38;;;21.31;44.37
28935;BME280;16044;52.726;-2.108;2023-07-20T11:08:11;100658.25;;;21.39;44.60
28935;BME280;16044;52.726;-2.108;2023-07-20T11:10:44;100649.78;;;21.29;42.89
28935;BME280;16044;52.726;-2.108;2023-07-20T11:13:18;100638.00;;;21.33;43.69
28935;BME280;16044;52.726;-2.108;2023-07-20T11:16:03;100638.72;;;21.40;43.76
28935;BME280;16044;52.726;-2.108;2023-07-20T11:18:34;100642.88;;;21.55;43.98
28935;BME280;16044;52.726;-2.108;2023-07-20T11:21:09;100633.28;;;21.57;42.82
28935;BME280;16044;52.726;-2.108;2023-07-20T11:23:41;100638.06;;;21.62;40.72
28935;BME280;16044;52.726;-2.108;2023-07-20T11:26:16;100623.84;;;21.53;41.05
28935;BME280;16044;52.726;-2.108;2023-07-20T11:28:48;100626.00;;;21.51;40.86
28935;BME280;16044;52.726;-2.108;2023-07-20T11:31:19;100624.94;;;21.40;41.08
28935;BME280;16044;52.726;-2.108;2023-07-20T11:33:50;100631.16;;;21.48;40.93
28935;BME280;16044;52.726;-2.108;2023-07-20T11:36:20;100617.47;;;21.53;41.57
28935;BME280;16044;52.726;-2.108;2023-07-20T11:38:53;100610.63;;;21.55;40.83
28935;BME280;16044;52.726;-2.108;2023-07-20T11:41:27;100624.59;;;21.66;41.39
28935;BME280;16044;52.726;-2.108;2023-07-20T11:43:57;100613.19;;;21.74;41.41
28935;BME280;16044;52.726;-2.108;2023-07-20T11:46:28;100616.81;;;21.91;42.62
28935;BME280;16044;52.726;-2.108;2023-07-20T11:48:59;100616.97;;;22.02;42.34
28935;BME280;16044;52.726;-2.108;2023-07-20T11:51:30;100609.78;;;22.00;41.19
28935;BME280;16044;52.726;-2.108;2023-07-20T11:54:02;100615.03;;;22.19;41.20
28935;BME280;16044;52.726;-2.108;2023-07-20T11:56:41;100607.81;;;22.30;41.49
28935;BME280;16044;52.726;-2.108;2023-07-20T11:59:18;100603.03;;;22.59;42.17
28935;BME280;16044;52.726;-2.108;2023-07-20T12:01:49;100606.31;;;22.78;42.39
28935;BME280;16044;52.726;-2.108;2023-07-20T12:04:19;100599.38;;;22.97;42.75
28935;BME280;16044;52.726;-2.108;2023-07-20T12:06:53;100602.44;;;23.18;42.53
28935;BME280;16044;52.726;-2.108;2023-07-20T12:09:23;100604.56;;;23.11;40.91
28935;BME280;16044;52.726;-2.108;2023-07-20T12:12:14;100614.97;;;23.04;41.11
28935;BME280;16044;52.726;-2.108;2023-07-20T12:14:45;100604.97;;;22.81;40.54
28935;BME280;16044;52.726;-2.108;2023-07-20T12:17:16;100607.00;;;22.68;41.05
28935;BME280;16044;52.726;-2.108;2023-07-20T12:19:46;100602.53;;;22.45;42.06
28935;BME280;16044;52.726;-2.108;2023-07-20T12:22:17;100606.06;;;22.41;42.59
28935;BME280;16044;52.726;-2.108;2023-07-20T12:24:52;100605.53;;;22.44;42.70
28935;BME280;16044;52.726;-2.108;2023-07-20T12:27:27;100598.00;;;22.39;42.70
28935;BME280;16044;52.726;-2.108;2023-07-20T12:29:58;100600.53;;;22.41;43.07
28935;BME280;16044;52.726;-2.108;2023-07-20T12:32:29;100604.19;;;22.46;42.83
28935;BME280;16044;52.726;-2.108;2023-07-20T12:35:00;100603.03;;;22.59;43.02
28935;BME280;16044;52.726;-2.108;2023-07-20T12:37:30;100596.47;;;22.65;43.83
28935;BME280;16044;52.726;-2.108;2023-07-20T12:40:00;100601.25;;;22.53;42.52
28935;BME280;16044;52.726;-2.108;2023-07-20T12:42:33;100599.19;;;22.43;42.94
28935;BME280;16044;52.726;-2.108;2023-07-20T12:45:05;100597.31;;;22.49;42.06
28935;BME280;16044;52.726;-2.108;2023-07-20T12:47:36;100597.00;;;22.28;41.91
28935;BME280;16044;52.726;-2.108;2023-07-20T12:50:07;100595.41;;;22.32;41.60
28935;BME280;16044;52.726;-2.108;2023-07-20T12:52:38;100595.81;;;22.07;42.56
28935;BME280;16044;52.726;-2.108;2023-07-20T12:55:10;100595.00;;;22.07;42.05
28935;BME280;16044;52.726;-2.108;2023-07-20T12:57:43;100586.22;;;22.10;43.33
28935;BME280;16044;52.726;-2.108;2023-07-20T13:00:15;100593.22;;;22.00;42.26
28935;BME280;16044;52.726;-2.108;2023-07-20T13:02:46;100590.28;;;21.90;42.39
28935;BME280;16044;52.726;-2.108;2023-07-20T13:05:33;100586.94;;;21.88;41.79
28935;BME280;16044;52.726;-2.108;2023-07-20T13:08:07;100586.09;;;21.88;42.04